Miami Springs, Florida
Current Conditions -  °F | °C
As of 12:53 AM on Wednesday 22 Oct 2014 (Local Time) from KMIA Reporting Station
Overcast Overcast  
Wind Chill: 75°   Ceiling: 16000
Heat Index: 75°   Visibility: 10mi
Dew Point: 72°   Wind: 3mph
Humidity: 90%   Direction: 160°SSE
Pressure: 29.94"   Gusts: NA
Location:  25.82°N, 80.28°W
Report Text: KMIA 220453Z 16003KT 10SM SCT110 OVC160 24/22 A2994 RMK AO2 SLP140 T02390222 402670239
Loading
Personal Weather Stations






























Interactive Weather Map
Tropical Storm Tracking
New forecast layout! Learn more

10-Day Weather Forecast

Advertisements
Track Severe Weather on mobile